Time;durP1;ratioP1;P1;durP2;ratioP2;P2;SDS_P1;SDS_P2;PMS_P1;PMS_P2;Temp;Humidity;BMP_temperature;BMP_pressure;BME280_temperature;BME280_humidity;BME280_pressure;Samples;Min_cycle;Max_cycle;Signal;HPM_P1;HPM_P2
2023/07/23 00:00:47;;;;;;;10.75;5.13;;;;;;;15.60;100.00;100827.72;6276025;28;20353;-73
2023/07/23 00:03:49;;;;;;;8.80;5.60;;;;;;;15.59;100.00;100822.56;6275754;28;20045;-73
2023/07/23 00:06:50;;;;;;;10.20;5.38;;;;;;;15.61;100.00;100810.88;6275734;28;20051;-73
2023/07/23 00:09:51;;;;;;;12.02;6.80;;;;;;;15.57;100.00;100808.56;6275677;28;20449;-72
2023/07/23 00:12:54;;;;;;;11.18;5.55;;;;;;;15.56;100.00;100807.72;6275334;28;20053;-73
2023/07/23 00:15:56;;;;;;;11.20;6.05;;;;;;;15.58;100.00;100811.13;6275853;28;20044;-73
2023/07/23 00:18:57;;;;;;;8.70;4.82;;;;;;;15.57;100.00;100793.50;6275623;28;20444;-73
2023/07/23 00:21:58;;;;;;;9.02;5.15;;;;;;;15.58;100.00;100791.69;6275106;28;20053;-73
2023/07/23 00:25:00;;;;;;;10.02;5.53;;;;;;;15.55;100.00;100789.28;6275380;28;20053;-73
2023/07/23 00:28:03;;;;;;;8.77;5.53;;;;;;;15.55;100.00;100786.66;6275337;28;20045;-72
2023/07/23 00:31:05;;;;;;;9.80;5.50;;;;;;;15.58;100.00;100779.31;6276900;28;20543;-73
2023/07/23 00:34:07;;;;;;;9.95;6.03;;;;;;;15.58;100.00;100774.03;6280717;28;20072;-73
2023/07/23 00:37:09;;;;;;;14.40;6.85;;;;;;;15.57;100.00;100776.78;6275288;28;20045;-73
2023/07/23 00:40:12;;;;;;;17.58;7.00;;;;;;;15.59;100.00;100770.41;6275212;28;20049;-73
2023/07/23 00:43:15;;;;;;;10.82;5.65;;;;;;;15.59;100.00;100762.47;6274753;28;20055;-73
2023/07/23 00:46:16;;;;;;;15.82;7.20;;;;;;;15.59;100.00;100769.56;6275068;28;20116;-73
2023/07/23 00:49:18;;;;;;;12.05;5.80;;;;;;;15.58;100.00;100757.25;6275195;28;20072;-73
2023/07/23 00:52:19;;;;;;;12.05;5.68;;;;;;;15.55;100.00;100761.00;6274915;28;20149;-73
2023/07/23 00:55:20;;;;;;;12.95;5.75;;;;;;;15.53;100.00;100759.41;6274841;28;20052;-74
2023/07/23 00:58:23;;;;;;;13.90;6.57;;;;;;;15.54;100.00;100764.63;6274976;28;20041;-73
2023/07/23 01:01:26;;;;;;;11.45;6.00;;;;;;;15.61;100.00;100760.53;6274833;28;20041;-73
2023/07/23 01:04:27;;;;;;;13.35;6.60;;;;;;;15.54;100.00;100754.03;6271566;28;20502;-73
2023/07/23 01:07:32;;;;;;;12.80;6.82;;;;;;;15.54;100.00;100748.72;6274796;28;20041;-73
2023/07/23 01:10:34;;;;;;;12.55;6.25;;;;;;;15.56;100.00;100744.13;6275341;28;20041;-73
2023/07/23 01:13:38;;;;;;;12.27;6.38;;;;;;;15.51;100.00;100733.03;6274381;28;20049;-73
2023/07/23 01:16:39;;;;;;;12.65;5.72;;;;;;;15.48;100.00;100731.44;6274918;28;20041;-74
2023/07/23 01:19:41;;;;;;;10.32;6.15;;;;;;;15.47;100.00;100721.81;6274724;28;20048;-73
2023/07/23 01:22:44;;;;;;;12.52;6.25;;;;;;;15.51;100.00;100714.50;6274375;28;20040;-73
2023/07/23 01:25:45;;;;;;;9.07;5.57;;;;;;;15.53;100.00;100717.03;6274592;28;20049;-75
2023/07/23 01:28:46;;;;;;;10.45;5.75;;;;;;;15.50;100.00;100704.88;6274511;28;20045;-73
2023/07/23 01:31:48;;;;;;;9.77;5.20;;;;;;;15.50;100.00;100707.53;6274400;28;20403;-73
2023/07/23 01:34:49;;;;;;;11.48;5.70;;;;;;;15.52;100.00;100702.09;6274193;28;20040;-73
2023/07/23 01:37:52;;;;;;;9.55;4.82;;;;;;;15.52;100.00;100689.69;6266223;28;20053;-74
2023/07/23 01:40:54;;;;;;;9.25;4.72;;;;;;;15.53;100.00;100686.09;6274272;28;20053;-73
2023/07/23 01:43:56;;;;;;;15.90;5.85;;;;;;;15.53;100.00;100687.91;6278818;28;20049;-73
2023/07/23 01:46:57;;;;;;;8.30;5.00;;;;;;;15.52;100.00;100686.22;6286366;28;20045;-73
2023/07/23 01:49:59;;;;;;;9.55;4.45;;;;;;;15.51;100.00;100687.19;6279135;28;20056;-73
2023/07/23 01:53:01;;;;;;;12.02;6.03;;;;;;;15.46;100.00;100683.06;6278586;28;20049;-73
2023/07/23 01:56:03;;;;;;;7.57;4.50;;;;;;;15.51;100.00;100684.53;6278933;28;20055;-73
2023/07/23 01:59:05;;;;;;;8.30;4.45;;;;;;;15.53;100.00;100677.28;6278919;28;20122;-73
2023/07/23 02:02:09;;;;;;;13.88;5.00;;;;;;;15.53;100.00;100672.00;6278304;28;20134;-73
2023/07/23 02:05:10;;;;;;;8.52;4.10;;;;;;;15.50;100.00;100667.78;6278347;28;20445;-73
2023/07/23 02:08:13;;;;;;;7.20;4.70;;;;;;;15.49;100.00;100666.13;6278533;28;20041;-74
2023/07/23 02:11:14;;;;;;;11.35;4.47;;;;;;;15.50;100.00;100666.97;6278738;28;20041;-73
2023/07/23 02:14:16;;;;;;;6.22;4.18;;;;;;;15.50;100.00;100653.72;6278070;28;20045;-73
2023/07/23 02:17:17;;;;;;;6.18;3.70;;;;;;;15.50;100.00;100659.00;6278508;28;20044;-73
2023/07/23 02:20:19;;;;;;;6.22;4.20;;;;;;;15.50;100.00;100656.38;6278236;28;20045;-73
2023/07/23 02:23:21;;;;;;;10.48;3.88;;;;;;;15.50;100.00;100651.06;6278127;28;20045;-73
2023/07/23 02:26:23;;;;;;;7.68;4.38;;;;;;;15.47;100.00;100646.81;6277960;28;20040;-73
2023/07/23 02:29:24;;;;;;;7.45;4.03;;;;;;;15.47;100.00;100646.81;6278170;28;20056;-73
2023/07/23 02:32:26;;;;;;;6.13;3.78;;;;;;;15.46;100.00;100645.16;6278018;28;20048;-73
2023/07/23 02:35:27;;;;;;;5.72;3.50;;;;;;;15.46;100.00;100637.19;6277807;28;20053;-73
2023/07/23 02:38:30;;;;;;;8.27;4.28;;;;;;;15.45;100.00;100641.66;6278128;28;20041;-73
2023/07/23 02:41:31;;;;;;;8.68;4.47;;;;;;;15.41;100.00;100634.91;6277502;28;20302;-74
2023/07/23 02:44:33;;;;;;;8.35;4.32;;;;;;;15.45;100.00;100630.22;6277483;28;20452;-73
2023/07/23 02:47:34;;;;;;;8.43;4.10;;;;;;;15.39;100.00;100630.66;6275010;28;20053;-73
2023/07/23 02:50:35;;;;;;;6.10;3.83;;;;;;;15.34;100.00;100628.38;6277550;28;20068;-73
2023/07/23 02:53:39;;;;;;;8.60;4.10;;;;;;;15.33;100.00;100626.69;6275705;28;20052;-73
2023/07/23 02:56:41;;;;;;;8.50;3.90;;;;;;;15.36;100.00;100628.28;6277424;28;20052;-73
2023/07/23 02:59:42;;;;;;;8.88;4.00;;;;;;;15.34;100.00;100619.56;6277891;28;20044;-73
2023/07/23 03:02:43;;;;;;;5.93;3.42;;;;;;;15.35;100.00;100618.63;6277010;28;20041;-73
2023/07/23 03:05:45;;;;;;;6.60;3.03;;;;;;;15.35;100.00;100619.50;6276263;28;20045;-74
2023/07/23 03:08:48;;;;;;;8.93;3.85;;;;;;;15.33;100.00;100618.75;6277139;28;20037;-73
2023/07/23 03:11:49;;;;;;;7.63;4.38;;;;;;;15.33;100.00;100609.97;6276866;28;20057;-74
2023/07/23 03:14:51;;;;;;;9.52;3.95;;;;;;;15.31;100.00;100610.09;6276928;28;20053;-73
2023/07/23 03:17:52;;;;;;;6.22;3.20;;;;;;;15.32;100.00;100619.72;6272797;28;20132;-73
2023/07/23 03:20:53;;;;;;;6.28;3.47;;;;;;;15.29;100.00;100606.69;6268922;28;20049;-73
2023/07/23 03:23:56;;;;;;;9.20;4.38;;;;;;;15.27;100.00;100611.28;6273658;28;20326;-73
2023/07/23 03:26:57;;;;;;;8.23;4.25;;;;;;;15.30;100.00;100597.78;6276628;28;20045;-71
2023/07/23 03:29:59;;;;;;;7.20;4.28;;;;;;;15.31;100.00;100591.53;6276651;28;20049;-72
2023/07/23 03:33:00;;;;;;;6.38;3.38;;;;;;;15.30;100.00;100592.47;6276368;28;20052;-71
2023/07/23 03:36:02;;;;;;;8.40;4.43;;;;;;;15.34;100.00;100595.75;6276453;28;20064;-71
2023/07/23 03:39:05;;;;;;;8.05;4.13;;;;;;;15.39;100.00;100583.84;6276099;28;20052;-71
2023/07/23 03:42:06;;;;;;;9.93;4.07;;;;;;;15.39;100.00;100581.19;6276140;28;20131;-71
2023/07/23 03:45:09;;;;;;;7.13;4.05;;;;;;;15.40;100.00;100577.59;6276075;28;20134;-71
2023/07/23 03:48:10;;;;;;;6.00;3.55;;;;;;;15.38;100.00;100571.56;6262914;28;20106;-72
2023/07/23 03:51:14;;;;;;;7.47;3.17;;;;;;;15.38;100.00;100573.38;6255840;28;20045;-71
2023/07/23 03:54:17;;;;;;;8.40;3.15;;;;;;;15.38;100.00;100570.72;6256000;28;20547;-72
2023/07/23 03:57:19;;;;;;;7.43;3.50;;;;;;;15.40;100.00;100568.81;6259158;28;20052;-71
2023/07/23 04:00:20;;;;;;;6.32;3.28;;;;;;;15.38;100.00;100566.28;6255368;28;20045;-72
2023/07/23 04:03:21;;;;;;;5.57;3.28;;;;;;;15.37;100.00;100566.41;6257806;28;20048;-71
2023/07/23 04:06:23;;;;;;;6.03;3.22;;;;;;;15.35;100.00;100566.53;6255265;28;20044;-72
2023/07/23 04:09:26;;;;;;;8.65;3.55;;;;;;;15.37;100.00;100566.41;6253930;28;20041;-73
2023/07/23 04:12:27;;;;;;;5.32;3.10;;;;;;;15.36;100.00;100556.78;6254703;28;20033;-72
2023/07/23 04:15:28;;;;;;;7.82;3.60;;;;;;;15.36;100.00;100551.47;6255935;28;20040;-72
2023/07/23 04:18:45;;;;;;;5.50;3.05;;;;;;;15.36;100.00;100549.66;6255756;28;20037;-72
2023/07/23 04:21:47;;;;;;;7.95;3.20;;;;;;;15.35;100.00;100550.63;6256562;28;20595;-72
2023/07/23 04:24:49;;;;;;;12.27;3.55;;;;;;;15.35;100.00;100549.78;6256043;28;20045;-71
2023/07/23 04:27:51;;;;;;;6.97;3.72;;;;;;;15.30;100.00;100543.97;6256262;28;20056;-71
2023/07/23 04:30:52;;;;;;;8.90;3.33;;;;;;;15.28;100.00;100538.81;6257198;28;20459;-72
2023/07/23 04:33:54;;;;;;;7.07;3.47;;;;;;;15.30;100.00;100536.03;6245831;28;20349;-71
2023/07/23 04:36:55;;;;;;;6.35;3.25;;;;;;;15.31;100.00;100530.66;6253855;28;20564;-71
2023/07/23 04:39:58;;;;;;;7.05;3.47;;;;;;;15.29;100.00;100524.63;6253019;28;20056;-72
2023/07/23 04:42:59;;;;;;;7.85;3.35;;;;;;;15.23;100.00;100525.09;6261291;28;20045;-71
2023/07/23 04:46:01;;;;;;;5.20;3.40;;;;;;;15.20;100.00;100515.56;6268676;28;20045;-71
2023/07/23 04:49:02;;;;;;;10.27;3.42;;;;;;;15.19;100.00;100516.53;6274573;28;20598;-72
2023/07/23 04:52:04;;;;;;;6.57;3.42;;;;;;;15.19;100.00;100519.19;6274459;28;20429;-73
2023/07/23 04:55:08;;;;;;;5.63;3.88;;;;;;;15.25;100.00;100519.66;6274170;28;20349;-73
2023/07/23 04:58:09;;;;;;;14.32;4.03;;;;;;;15.25;100.00;100512.56;6274579;28;20049;-73
2023/07/23 05:01:12;;;;;;;5.07;3.33;;;;;;;15.28;100.00;100507.03;6277479;28;20049;-73
2023/07/23 05:04:13;;;;;;;5.95;3.75;;;;;;;15.26;100.00;100518.69;6278833;28;20083;-73
2023/07/23 05:07:15;;;;;;;8.73;3.97;;;;;;;15.19;100.00;100521.00;6274486;28;20052;-73
2023/07/23 05:10:18;;;;;;;7.53;3.78;;;;;;;15.15;100.00;100516.88;6274023;28;20445;-73
2023/07/23 05:13:19;;;;;;;9.02;3.90;;;;;;;15.23;100.00;100509.22;6274060;28;20048;-73
2023/07/23 05:16:20;;;;;;;9.35;4.22;;;;;;;15.27;100.00;100507.19;6274426;28;20055;-73
2023/07/23 05:19:22;;;;;;;6.40;3.60;;;;;;;15.27;100.00;100508.00;6279336;28;20048;-73
2023/07/23 05:22:23;;;;;;;9.93;4.47;;;;;;;15.23;100.00;100509.22;6278730;28;20049;-73
2023/07/23 05:25:26;;;;;;;7.22;3.28;;;;;;;15.25;100.00;100509.06;6279481;28;20041;-73
2023/07/23 05:28:27;;;;;;;7.65;4.35;;;;;;;15.25;100.00;100499.31;6279738;28;20041;-72
2023/07/23 05:31:30;;;;;;;9.15;3.85;;;;;;;15.18;100.00;100496.31;6287679;28;20037;-73
2023/07/23 05:34:32;;;;;;;6.10;3.38;;;;;;;15.23;100.00;100494.16;6279367;28;20041;-73
2023/07/23 05:37:33;;;;;;;9.05;4.65;;;;;;;15.25;100.00;100485.25;6279169;28;20037;-73
2023/07/23 05:40:36;;;;;;;8.10;4.82;;;;;;;15.27;100.00;100484.19;6287541;28;20045;-73
2023/07/23 05:43:38;;;;;;;7.63;4.32;;;;;;;15.28;100.00;100475.28;6278756;28;20052;-73
2023/07/23 05:46:39;;;;;;;7.75;4.07;;;;;;;15.33;100.00;100478.41;6279015;28;20349;-73
2023/07/23 05:49:41;;;;;;;6.47;3.83;;;;;;;15.34;100.00;100466.84;6279197;28;20049;-71
2023/07/23 05:52:42;;;;;;;6.80;4.03;;;;;;;15.41;100.00;100467.22;6278682;28;20255;-71
2023/07/23 05:55:45;;;;;;;11.57;4.10;;;;;;;15.42;100.00;100463.59;6294475;28;20067;-73
2023/07/23 05:58:47;;;;;;;7.22;4.03;;;;;;;15.45;100.00;100463.38;6279968;28;20052;-73
2023/07/23 06:01:50;;;;;;;6.70;3.88;;;;;;;15.53;100.00;100452.16;6279241;28;20519;-71
2023/07/23 06:04:51;;;;;;;8.32;4.18;;;;;;;15.55;100.00;100451.09;6261335;28;20052;-74
2023/07/23 06:07:56;;;;;;;5.75;3.45;;;;;;;15.55;100.00;100450.25;6252943;28;20341;-72
2023/07/23 06:10:59;;;;;;;8.10;4.43;;;;;;;15.60;100.00;100443.63;6281263;28;20045;-72
2023/07/23 06:14:01;;;;;;;6.90;4.07;;;;;;;15.69;100.00;100442.09;6280203;28;20178;-72
2023/07/23 06:17:05;;;;;;;6.65;3.95;;;;;;;15.70;100.00;100439.31;6287851;28;20445;-72
2023/07/23 06:20:08;;;;;;;9.32;4.78;;;;;;;15.75;100.00;100438.09;6287062;28;20053;-71
2023/07/23 06:23:09;;;;;;;8.20;3.40;;;;;;;15.78;100.00;100436.06;6277601;28;20056;-72
2023/07/23 06:26:12;;;;;;;8.77;4.47;;;;;;;15.82;100.00;100434.00;6281618;28;20472;-72
2023/07/23 06:29:17;;;;;;;9.43;4.43;;;;;;;15.85;100.00;100428.44;6282590;28;20041;-72
2023/07/23 06:32:18;;;;;;;8.15;3.50;;;;;;;15.86;100.00;100425.69;6285082;28;20071;-72
2023/07/23 06:35:19;;;;;;;5.85;3.55;;;;;;;15.87;100.00;100424.72;6285582;28;20344;-74
2023/07/23 06:38:21;;;;;;;7.32;4.10;;;;;;;15.90;100.00;100427.13;6274595;28;20044;-72
2023/07/23 06:41:23;;;;;;;7.18;3.47;;;;;;;15.93;100.00;100418.91;6286978;28;20048;-72
2023/07/23 06:44:25;;;;;;;7.43;3.92;;;;;;;15.97;100.00;100414.19;6275797;28;20053;-72
2023/07/23 06:47:26;;;;;;;7.05;4.00;;;;;;;15.95;100.00;100417.00;6278064;28;20052;-72
2023/07/23 06:50:30;;;;;;;6.32;3.72;;;;;;;16.02;100.00;100413.81;6277728;28;20049;-72
2023/07/23 06:53:31;;;;;;;12.93;4.65;;;;;;;16.05;100.00;100414.44;6277630;28;20433;-72
2023/07/23 06:56:35;;;;;;;7.50;4.28;;;;;;;16.06;100.00;100402.84;6277603;28;20456;-72
2023/07/23 06:59:36;;;;;;;6.88;3.47;;;;;;;16.10;100.00;100396.34;6290860;28;20353;-72
2023/07/23 07:02:37;;;;;;;8.68;4.30;;;;;;;16.14;100.00;100397.78;6302049;28;20048;-72
2023/07/23 07:05:39;;;;;;;7.25;3.67;;;;;;;16.16;100.00;100394.97;6302207;28;20045;-72
2023/07/23 07:08:41;;;;;;;7.32;3.47;;;;;;;16.18;100.00;100387.75;6288458;28;20055;-72
2023/07/23 07:11:44;;;;;;;9.25;3.55;;;;;;;16.23;100.00;100388.22;6279421;28;20364;-72
2023/07/23 07:14:45;;;;;;;7.60;3.47;;;;;;;16.22;100.00;100378.59;6279822;28;20661;-72
2023/07/23 07:17:46;;;;;;;8.48;3.47;;;;;;;16.27;100.00;100378.22;6276264;28;20045;-72
2023/07/23 07:20:54;;;;;;;5.65;3.05;;;;;;;16.35;100.00;100384.56;6278832;28;20045;-72
2023/07/23 07:23:56;;;;;;;10.27;3.83;;;;;;;16.37;100.00;100372.00;6277142;28;20080;-72
2023/07/23 07:26:58;;;;;;;6.68;3.10;;;;;;;16.35;100.00;100370.44;6274389;28;20491;-72
2023/07/23 07:30:00;;;;;;;5.28;2.95;;;;;;;16.40;100.00;100373.56;6263176;28;20072;-72
2023/07/23 07:33:01;;;;;;;7.28;3.50;;;;;;;16.43;100.00;100371.47;6275919;28;20045;-72
2023/07/23 07:36:03;;;;;;;5.60;3.13;;;;;;;16.52;100.00;100361.91;6276680;28;20053;-72
2023/07/23 07:39:04;;;;;;;4.13;2.90;;;;;;;16.55;100.00;100363.47;6279138;28;20065;-72
2023/07/23 07:42:08;;;;;;;6.13;3.22;;;;;;;16.62;100.00;100360.19;6274935;28;20057;-72
2023/07/23 07:45:11;;;;;;;6.82;3.35;;;;;;;16.68;100.00;100364.94;6276870;28;20053;-72
2023/07/23 07:48:12;;;;;;;10.13;3.50;;;;;;;16.73;100.00;100360.13;6287817;28;20052;-72
2023/07/23 07:51:13;;;;;;;5.03;3.28;;;;;;;16.74;100.00;100360.97;6301230;28;20049;-72
2023/07/23 07:54:15;;;;;;;7.20;3.17;;;;;;;16.74;100.00;100353.00;6282019;28;20041;-73
2023/07/23 07:57:18;;;;;;;5.40;3.10;;;;;;;16.82;100.00;100357.66;6262019;28;20056;-73
2023/07/23 08:00:20;;;;;;;4.72;3.13;;;;;;;16.88;100.00;100350.00;6277379;28;20051;-72
2023/07/23 08:03:23;;;;;;;7.03;3.25;;;;;;;16.97;100.00;100343.06;6282256;28;20544;-73
2023/07/23 08:06:25;;;;;;;6.45;3.30;;;;;;;17.02;100.00;100343.50;6274045;28;20447;-73
2023/07/23 08:09:28;;;;;;;5.05;3.08;;;;;;;17.05;100.00;100335.28;6261590;28;20041;-73
2023/07/23 08:12:32;;;;;;;4.88;2.70;;;;;;;17.12;100.00;100346.19;6269653;28;20122;-73
2023/07/23 08:15:34;;;;;;;6.78;2.80;;;;;;;17.16;100.00;100339.63;6273656;28;20049;-73
2023/07/23 08:18:36;;;;;;;4.50;2.70;;;;;;;17.19;100.00;100336.72;6285719;28;20052;-73
2023/07/23 08:21:38;;;;;;;5.85;3.10;;;;;;;17.27;100.00;100339.56;6287188;28;20357;-73
2023/07/23 08:24:40;;;;;;;5.05;3.08;;;;;;;17.29;100.00;100342.91;6275115;28;20045;-73
2023/07/23 08:27:44;;;;;;;6.78;3.08;;;;;;;17.32;100.00;100332.03;6260667;28;20048;-73
2023/07/23 08:30:46;;;;;;;4.22;2.65;;;;;;;17.36;100.00;100338.75;6286533;28;20090;-73
2023/07/23 08:33:48;;;;;;;5.00;2.65;;;;;;;17.45;100.00;100334.44;6273572;28;20059;-73
2023/07/23 08:36:50;;;;;;;4.60;2.90;;;;;;;17.47;100.00;100335.97;6274141;28;20052;-73
2023/07/23 08:39:52;;;;;;;4.70;2.75;;;;;;;17.53;100.00;100345.19;6274151;28;20045;-73
2023/07/23 08:43:18;;;;;;;5.82;3.13;;;;;;;17.53;100.00;100337.22;6265203;28;20076;-73
2023/07/23 08:46:24;;;;;;;4.72;2.95;;;;;;;17.58;100.00;100347.47;6265925;28;20077;-74
2023/07/23 08:49:26;;;;;;;5.50;2.92;;;;;;;17.70;100.00;100346.34;6274470;28;20041;-74
2023/07/23 08:52:29;;;;;;;3.40;2.30;;;;;;;17.85;100.00;100342.38;6262266;28;20049;-74
2023/07/23 08:55:30;;;;;;;4.28;2.55;;;;;;;17.83;100.00;100341.66;6263672;28;20048;-74
2023/07/23 08:58:33;;;;;;;4.03;2.40;;;;;;;17.94;100.00;100346.84;6257391;28;20041;-74
2023/07/23 09:01:36;;;;;;;4.07;2.45;;;;;;;18.03;100.00;100339.84;6261960;28;20052;-74
2023/07/23 09:04:37;;;;;;;4.38;2.40;;;;;;;18.09;100.00;100341.13;6274050;28;20052;-75
2023/07/23 09:07:39;;;;;;;3.83;2.55;;;;;;;18.11;100.00;100337.31;6281338;28;20045;-74
2023/07/23 09:10:40;;;;;;;6.25;2.90;;;;;;;18.22;100.00;100328.38;6276709;28;20064;-74
2023/07/23 09:13:43;;;;;;;7.93;2.50;;;;;;;18.39;100.00;100329.44;6284983;28;20441;-74
2023/07/23 09:16:46;;;;;;;5.28;3.10;;;;;;;18.41;100.00;100331.00;6284848;28;20079;-74
2023/07/23 09:19:48;;;;;;;3.78;2.08;;;;;;;18.43;100.00;100337.00;6266248;28;20072;-74
2023/07/23 09:22:49;;;;;;;9.20;2.72;;;;;;;18.57;100.00;100343.72;6267399;28;20129;-74
2023/07/23 09:25:51;;;;;;;10.80;2.85;;;;;;;18.60;100.00;100345.25;6279035;28;20052;-74
2023/07/23 09:28:55;;;;;;;3.10;2.17;;;;;;;18.56;100.00;100349.19;6270484;28;20437;-74
2023/07/23 09:31:57;;;;;;;4.90;2.22;;;;;;;18.74;100.00;100335.00;6270407;28;20365;-74
2023/07/23 09:35:03;;;;;;;6.18;2.38;;;;;;;18.96;100.00;100346.31;6272973;28;20073;-73
2023/07/23 09:38:04;;;;;;;4.57;1.77;;;;;;;18.99;100.00;100346.03;6270704;28;20045;-73
2023/07/23 09:41:06;;;;;;;3.67;2.15;;;;;;;19.01;100.00;100339.56;6273477;28;20049;-74
2023/07/23 09:44:11;;;;;;;3.90;2.17;;;;;;;19.19;100.00;100344.94;6271354;28;20045;-74
2023/07/23 09:47:13;;;;;;;4.28;1.77;;;;;;;19.23;100.00;100346.34;6268381;28;20169;-74
2023/07/23 09:50:16;;;;;;;3.45;1.70;;;;;;;19.24;100.00;100357.81;6270652;28;20041;-74
2023/07/23 09:53:17;;;;;;;2.22;1.60;;;;;;;19.18;100.00;100355.75;6272508;28;20348;-74
2023/07/23 09:56:22;;;;;;;2.78;1.90;;;;;;;19.12;100.00;100356.31;6273666;28;20048;-74
2023/07/23 09:59:25;;;;;;;3.85;2.67;;;;;;;19.19;100.00;100349.44;6273096;28;20041;-74
2023/07/23 10:02:29;;;;;;;6.50;2.20;;;;;;;19.18;100.00;100345.94;6276560;28;20044;-74
2023/07/23 10:05:33;;;;;;;4.20;1.88;;;;;;;19.20;100.00;100343.94;6276932;28;20040;-74
2023/07/23 10:08:35;;;;;;;3.88;1.58;;;;;;;19.18;100.00;100347.78;6291862;28;20437;-74
2023/07/23 10:11:37;;;;;;;3.33;2.22;;;;;;;19.24;100.00;100344.50;6292152;28;20072;-73
2023/07/23 10:14:40;;;;;;;3.55;1.73;;;;;;;19.21;100.00;100352.78;6281970;28;20045;-74
2023/07/23 10:17:45;;;;;;;3.35;2.10;;;;;;;19.15;100.00;100348.88;6284463;28;20056;-74
2023/07/23 10:20:47;;;;;;;4.43;1.95;;;;;;;19.09;100.00;100362.81;6281576;28;20065;-73
2023/07/23 10:23:55;;;;;;;2.80;1.90;;;;;;;19.11;100.00;100362.66;6293753;28;20048;-73
2023/07/23 10:26:56;;;;;;;3.05;1.80;;;;;;;19.05;100.00;100374.72;6286088;28;20126;-73
2023/07/23 10:30:18;;;;;;;8.98;2.38;;;;;;;18.92;100.00;100382.19;6294790;28;20127;-73
2023/07/23 10:33:30;;;;;;;3.20;1.88;;;;;;;18.82;100.00;100400.88;6294597;28;20095;-77
2023/07/23 10:36:32;;;;;;;4.32;2.10;;;;;;;18.67;100.00;100403.09;6281360;28;20124;-73
2023/07/23 10:39:39;;;;;;;4.85;2.30;;;;;;;18.41;100.00;100413.50;6297252;28;20036;-73
2023/07/23 10:42:42;;;;;;;4.05;2.40;;;;;;;18.24;100.00;100415.03;6281025;28;20055;-76
2023/07/23 10:45:49;;;;;;;4.13;2.00;;;;;;;18.23;100.00;100412.50;6291357;28;20092;-73
2023/07/23 10:48:52;;;;;;;2.70;1.73;;;;;;;18.25;100.00;100423.84;6282885;28;20531;-73
2023/07/23 10:51:53;;;;;;;4.05;2.35;;;;;;;18.11;100.00;100422.44;6278909;28;20053;-72
2023/07/23 10:54:54;;;;;;;6.20;3.08;;;;;;;17.97;100.00;100418.34;6283596;28;20057;-73
2023/07/23 10:57:56;;;;;;;4.68;2.25;;;;;;;17.78;100.00;100444.06;6279601;28;20932;-73
2023/07/23 11:01:00;;;;;;;7.55;3.13;;;;;;;17.55;100.00;100433.59;6285747;28;20045;-73
2023/07/23 11:04:08;;;;;;;5.03;2.80;;;;;;;17.35;100.00;100437.13;6277597;28;20056;-73
2023/07/23 11:07:09;;;;;;;4.28;2.85;;;;;;;17.34;100.00;100431.00;6277490;28;20045;-74
2023/07/23 11:10:21;;;;;;;4.32;2.80;;;;;;;17.42;100.00;100425.84;6277491;28;20049;-73
2023/07/23 11:13:24;;;;;;;4.50;2.50;;;;;;;17.43;100.00;100416.06;6277145;28;20053;-73
2023/07/23 11:16:27;;;;;;;4.30;2.85;;;;;;;17.44;100.00;100404.47;6279998;28;20439;-73
2023/07/23 11:19:30;;;;;;;5.63;2.53;;;;;;;17.52;100.00;100403.78;6290025;28;20046;-74
2023/07/23 11:22:32;;;;;;;5.85;2.58;;;;;;;17.54;100.00;100402.69;6282311;28;20425;-73
2023/07/23 11:25:34;;;;;;;5.40;2.50;;;;;;;17.56;100.00;100398.06;6277719;28;20061;-74
2023/07/23 11:28:35;;;;;;;4.53;2.70;;;;;;;17.68;100.00;100398.81;6281452;28;20052;-73
2023/07/23 11:31:40;;;;;;;6.63;2.35;;;;;;;17.68;100.00;100394.34;6280777;28;20068;-73
2023/07/23 11:34:41;;;;;;;4.75;2.28;;;;;;;17.75;100.00;100390.19;6276566;28;20049;-73
2023/07/23 11:37:48;;;;;;;8.00;2.33;;;;;;;17.79;100.00;100392.56;6277014;28;20110;-73
2023/07/23 11:40:52;;;;;;;4.53;2.85;;;;;;;17.81;100.00;100391.47;6276453;28;20464;-73
2023/07/23 11:43:53;;;;;;;4.78;2.55;;;;;;;17.89;100.00;100399.56;6275964;28;20357;-73
2023/07/23 11:47:01;;;;;;;4.70;2.50;;;;;;;17.91;100.00;100396.81;6291645;28;20479;-73
2023/07/23 11:50:03;;;;;;;2.80;1.80;;;;;;;17.95;100.00;100385.75;6301461;28;20080;-73
2023/07/23 11:53:05;;;;;;;2.97;1.42;;;;;;;18.15;100.00;100386.59;6300461;28;20064;-73
2023/07/23 11:56:09;;;;;;;3.92;1.75;;;;;;;18.30;100.00;100376.38;6301328;28;20076;-74
2023/07/23 11:59:12;;;;;;;3.35;1.75;;;;;;;18.48;100.00;100387.97;6301202;28;20041;-74
2023/07/23 12:02:18;;;;;;;3.78;1.83;;;;;;;18.60;100.00;100379.84;6300858;28;20049;-73
2023/07/23 12:05:20;;;;;;;4.30;1.80;;;;;;;18.73;100.00;100378.59;6299865;28;20341;-73
2023/07/23 12:08:22;;;;;;;5.68;1.55;;;;;;;18.83;100.00;100383.06;6289202;28;20049;-73
2023/07/23 12:11:28;;;;;;;2.80;1.70;;;;;;;18.96;100.00;100387.09;6277825;28;20048;-79
2023/07/23 12:14:30;;;;;;;2.75;1.80;;;;;;;19.00;100.00;100372.50;6273022;28;20137;-73
2023/07/23 12:17:35;;;;;;;6.47;1.52;;;;;;;18.99;100.00;100378.81;6288305;28;20162;-73
2023/07/23 12:20:38;;;;;;;3.13;1.90;;;;;;;18.97;100.00;100380.78;6290215;28;20041;-74
2023/07/23 12:23:42;;;;;;;4.03;1.70;;;;;;;19.03;100.00;100376.72;6275512;28;20045;-74
2023/07/23 12:26:44;;;;;;;2.28;1.42;;;;;;;19.10;100.00;100371.63;6282875;28;20045;-73
2023/07/23 12:29:48;;;;;;;2.45;1.60;;;;;;;19.09;100.00;100384.13;6273396;28;20064;-74
2023/07/23 12:32:51;;;;;;;3.95;1.63;;;;;;;19.06;100.00;100379.06;6270595;28;20052;-73
2023/07/23 12:35:53;;;;;;;1.85;1.48;;;;;;;19.04;100.00;100385.53;6272102;28;20052;-73
2023/07/23 12:38:54;;;;;;;4.13;1.50;;;;;;;19.06;100.00;100379.06;6273866;28;20057;-74
2023/07/23 12:41:56;;;;;;;3.42;1.48;;;;;;;19.08;100.00;100381.59;6273609;28;20065;-73
2023/07/23 12:44:57;;;;;;;1.60;1.27;;;;;;;19.09;100.00;100377.94;6271549;28;20060;-74
2023/07/23 12:48:00;;;;;;;2.00;1.45;;;;;;;19.12;100.00;100375.84;6271604;28;20048;-74
2023/07/23 12:51:01;;;;;;;2.15;1.30;;;;;;;19.12;100.00;100374.97;6280147;28;20041;-73
2023/07/23 12:54:03;;;;;;;2.33;1.48;;;;;;;19.13;100.00;100390.00;6274183;28;20357;-72
2023/07/23 12:57:04;;;;;;;2.63;1.67;;;;;;;19.14;100.00;100387.16;6273580;28;20055;-74
2023/07/23 13:00:07;;;;;;;1.67;1.27;;;;;;;19.12;100.00;100389.16;6275613;28;20049;-73
2023/07/23 13:03:11;;;;;;;1.40;1.02;;;;;;;19.13;100.00;100392.66;6278814;28;20422;-74
2023/07/23 13:06:12;;;;;;;1.30;1.10;;;;;;;19.14;100.00;100412.97;6282979;28;20056;-74
2023/07/23 13:09:15;;;;;;;3.72;1.15;;;;;;;19.24;100.00;100397.78;6299987;28;20044;-74
2023/07/23 13:12:17;;;;;;;1.02;0.90;;;;;;;19.23;100.00;100391.63;6299948;28;20048;-73
2023/07/23 13:15:18;;;;;;;1.42;1.20;;;;;;;19.23;100.00;100412.09;6299674;28;20052;-74
2023/07/23 13:18:21;;;;;;;1.98;1.20;;;;;;;19.12;100.00;100412.25;6299841;28;20186;-74
2023/07/23 13:21:23;;;;;;;1.98;1.10;;;;;;;19.01;100.00;100403.47;6299945;28;20421;-74
2023/07/23 13:24:24;;;;;;;1.67;1.25;;;;;;;19.06;100.00;100407.53;6299652;28;20049;-74
2023/07/23 13:27:25;;;;;;;1.52;1.23;;;;;;;19.11;100.00;100408.75;6299920;28;20056;-74
2023/07/23 13:30:27;;;;;;;1.40;0.90;;;;;;;19.08;100.00;100400.25;6299881;28;20041;-73
2023/07/23 13:33:30;;;;;;;0.77;0.70;;;;;;;19.05;100.00;100413.84;6299267;28;20048;-74
2023/07/23 13:36:31;;;;;;;1.27;1.00;;;;;;;19.05;100.00;100404.03;6293324;28;20048;-74
2023/07/23 13:39:32;;;;;;;1.77;1.33;;;;;;;19.06;100.00;100402.19;6294361;28;20048;-74
2023/07/23 13:42:34;;;;;;;1.30;1.00;;;;;;;19.02;100.00;100407.81;6303774;28;20356;-73
2023/07/23 13:45:35;;;;;;;1.73;1.20;;;;;;;19.06;100.00;100415.53;6293438;28;20174;-74
2023/07/23 13:48:38;;;;;;;1.17;0.80;;;;;;;19.05;100.00;100411.19;6275798;28;20037;-74
2023/07/23 13:51:39;;;;;;;2.13;1.10;;;;;;;19.02;100.00;100412.28;6289994;28;20075;-74
2023/07/23 13:54:42;;;;;;;2.35;1.10;;;;;;;19.00;100.00;100425.78;6269622;28;20041;-73
2023/07/23 13:57:43;;;;;;;2.05;1.20;;;;;;;18.99;100.00;100416.09;6278300;28;20045;-73